Terminal Aerodrome Forecast
Issued by NWS

Home | Current Version | Previous Version | Text Only | Print | Product List | Glossary Off
Versions: 1 2 3 4 5 6 7 8 9 10 11 12 13 14 15 16 17 18 19 20 21 22 23 24 25 26 27 28 29 30 31 32 33 34 35 36 37 38 39 40 41 42 43 44 45 46 47

000
FTUS43 KGRB 211100
TAFRHI
TAF
KRHI 211137Z 2112/2212 16007KT 4SM BR OVC004
      TEMPO 2112/2116 2SM -FZDZ BR
     FM211600 16009KT 4SM -FZDZSN BR SCT006 OVC012
     FM212000 15010KT 3SM -SN BR OVC012
      TEMPO 2120/2122 1 1/2SM -SN
     FM212200 15010KT 1 1/2SM -SN SCT006 OVC012 WS020/20035KT
     FM220900 14009KT 3SM -FZDZSN BR OVC009=

USA.gov is the U.S. government's official web portal to all federal, state and local government web resources and services.